Time;durP1;ratioP1;P1;durP2;ratioP2;P2;SDS_P1;SDS_P2;PMS_P1;PMS_P2;Temp;Humidity;BMP_temperature;BMP_pressure;BME280_temperature;BME280_humidity;BME280_pressure;Samples;Min_cycle;Max_cycle;Signal;HPM_P1;HPM_P2
2022/01/19 00:00:49;;;;;;;19.35;9.52;;;;;;;9.28;47.90;102555.22;5071856;28;20055;-75
2022/01/19 00:03:35;;;;;;;19.85;9.63;;;;;;;9.24;47.74;102559.53;5075692;28;20063;-75
2022/01/19 00:06:20;;;;;;;23.77;12.52;;;;;;;9.06;48.02;102565.34;5081916;28;20055;-76
2022/01/19 00:09:05;;;;;;;28.48;12.30;;;;;;;8.95;48.51;102577.19;5071385;28;20051;-75
2022/01/19 00:11:50;;;;;;;17.70;9.57;;;;;;;8.98;48.52;102584.84;5075572;28;20124;-76
2022/01/19 00:14:35;;;;;;;17.38;9.93;;;;;;;9.00;48.41;102593.53;5073283;28;20044;-76
2022/01/19 00:17:20;;;;;;;14.52;9.10;;;;;;;9.07;47.98;102601.47;5071661;28;20059;-76
2022/01/19 00:20:07;;;;;;;18.73;8.95;;;;;;;8.98;47.83;102601.13;5070564;28;20052;-76
2022/01/19 00:22:53;;;;;;;20.30;10.98;;;;;;;9.04;47.64;102594.63;5074002;28;20051;-76
2022/01/19 00:25:38;;;;;;;23.73;11.30;;;;;;;8.98;47.82;102604.66;5071873;28;20518;-76
2022/01/19 00:28:24;;;;;;;17.05;9.20;;;;;;;9.00;47.84;102596.22;5075108;28;20040;-75
2022/01/19 00:31:09;;;;;;;22.20;11.85;;;;;;;8.92;47.93;102602.16;5073297;28;20047;-75
2022/01/19 00:33:53;;;;;;;22.10;11.25;;;;;;;8.93;48.02;102591.03;5069995;28;20045;-76
2022/01/19 00:36:38;;;;;;;16.27;9.23;;;;;;;8.96;48.03;102585.09;5060524;28;20513;-76
2022/01/19 00:39:24;;;;;;;22.80;11.93;;;;;;;8.92;47.86;102596.72;5057027;28;20043;-75
2022/01/19 00:42:09;;;;;;;25.65;11.43;;;;;;;8.85;48.24;102582.53;5071821;28;20045;-75
2022/01/19 00:44:53;;;;;;;21.52;10.20;;;;;;;8.93;47.91;102582.09;5060369;28;20039;-76
2022/01/19 00:47:38;;;;;;;17.58;9.88;;;;;;;8.86;48.25;102586.88;5073985;28;20428;-75
2022/01/19 00:50:27;;;;;;;23.17;11.70;;;;;;;8.78;48.79;102584.66;5070492;28;20040;-75
2022/01/19 00:53:11;;;;;;;24.33;13.07;;;;;;;8.57;49.31;102570.09;5070466;28;20524;-75
2022/01/19 00:55:56;;;;;;;20.48;10.88;;;;;;;8.72;49.06;102572.13;5070467;28;20044;-75
2022/01/19 00:58:41;;;;;;;15.75;9.73;;;;;;;8.68;49.01;102581.84;5037371;28;20052;-75
2022/01/19 01:01:26;;;;;;;18.35;10.65;;;;;;;8.75;48.51;102580.56;5063665;28;20055;-75
2022/01/19 01:04:12;;;;;;;23.33;11.75;;;;;;;8.42;49.66;102572.63;5062659;28;20049;-75
2022/01/19 01:06:57;;;;;;;;;;;;;;;8.18;51.00;102563.91;5062058;28;20037;-75
2022/01/19 01:09:41;;;;;;;23.55;11.95;;;;;;;8.57;49.78;102554.63;5074447;28;19913;-76
2022/01/19 01:12:50;;;;;;;22.15;11.45;;;;;;;8.45;50.41;102551.25;5078625;28;20040;-75
2022/01/19 01:18:36;;;;;;;25.33;14.18;;;;;;;8.81;49.65;102563.25;5063154;28;20041;-75
2022/01/19 01:21:23;;;;;;;27.30;15.30;;;;;;;8.54;50.85;102570.56;5061496;28;20048;-76
2022/01/19 01:24:08;;;;;;;21.08;11.15;;;;;;;8.76;50.05;102582.19;5058417;28;20417;-75
2022/01/19 01:26:53;;;;;;;28.45;15.38;;;;;;;8.64;50.19;102586.94;5062968;28;20044;-75
2022/01/19 01:29:38;;;;;;;25.23;13.85;;;;;;;8.59;49.63;102585.00;5073919;28;20551;-75
2022/01/19 01:32:23;;;;;;;18.90;11.25;;;;;;;8.24;50.48;102600.84;5059626;28;20524;-75
2022/01/19 01:35:09;;;;;;;26.55;14.25;;;;;;;8.34;50.23;102594.75;5053051;28;20056;-75
2022/01/19 01:37:53;;;;;;;23.88;14.13;;;;;;;8.43;50.39;102590.53;5056078;28;20049;-75
2022/01/19 01:40:38;;;;;;;36.47;15.73;;;;;;;8.39;50.18;102586.69;5053640;28;20048;-75
2022/01/19 01:43:23;;;;;;;19.08;10.73;;;;;;;8.43;50.10;102575.06;5059686;28;20041;-75
2022/01/19 01:46:13;;;;;;;20.10;11.43;;;;;;;8.51;49.96;102569.22;5076527;28;20507;-75
2022/01/19 01:48:58;;;;;;;25.13;14.07;;;;;;;8.42;49.83;102562.63;5073615;28;20044;-75
2022/01/19 01:54:47;;;;;;;28.02;14.93;;;;;;;8.35;49.37;102555.75;5064706;28;20048;-75
2022/01/19 01:57:32;;;;;;;22.98;11.80;;;;;;;8.33;49.45;102545.16;5046255;28;20037;-75
2022/01/19 02:00:21;;;;;;;20.97;10.67;;;;;;;8.44;49.41;102538.75;5062440;28;20040;-75
2022/01/19 02:03:12;;;;;;;27.52;15.25;;;;;;;8.46;49.44;102530.38;5059707;28;20279;-75
2022/01/19 02:08:53;;;;;;;23.50;12.35;;;;;;;8.30;49.90;102523.16;5044487;28;20398;-75
2022/01/19 02:23:55;;;;;;;31.55;16.23;;;;;;;8.22;51.45;102508.16;5070241;28;20051;-76
2022/01/19 02:41:20;;;;;;;28.02;15.35;;;;;;;7.96;51.58;102490.81;5051401;28;20045;-77
2022/01/19 02:44:13;;;;;;;23.15;12.65;;;;;;;7.98;50.93;102490.53;5071515;28;20052;-75
2022/01/19 02:50:01;;;;;;;34.05;15.45;;;;;;;7.91;51.28;102493.47;5072425;28;20111;-75
2022/01/19 02:52:45;;;;;;;25.40;15.48;;;;;;;7.96;51.54;102492.69;5054463;28;20060;-76
2022/01/19 02:55:32;;;;;;;;;;;;;;;7.97;51.97;102488.94;5052652;28;20044;-74
2022/01/19 02:58:19;;;;;;;;;;;;;;;7.85;52.28;102480.94;5072389;28;19913;-74
2022/01/19 03:10:16;;;;;;;;;;;;;;;7.83;51.28;102485.78;5042325;28;20423;-74
2022/01/19 03:13:00;;;;;;;;;;;;;;;7.82;50.80;102486.88;5066768;28;19916;-74
2022/01/19 03:15:46;;;;;;;;;;;;;;;7.76;50.54;102489.75;5059455;28;19916;-74
2022/01/19 03:18:32;;;;;;;;;;;;;;;7.81;50.03;102479.81;5059684;28;20289;-74
2022/01/19 03:21:17;;;;;;;;;;;;;;;7.75;50.30;102480.81;5094688;28;20308;-74
2022/01/19 03:24:03;;;;;;;;;;;;;;;7.74;50.52;102480.00;5058734;28;19920;-74
2022/01/19 03:26:47;;;;;;;;;;;;;;;7.68;50.35;102472.88;5058103;28;19912;-74
2022/01/19 03:29:34;;;;;;;;;;;;;;;7.64;50.32;102469.03;5066382;28;19912;-74
2022/01/19 03:32:19;;;;;;;;;;;;;;;7.63;50.43;102464.69;5064700;28;19912;-74
2022/01/19 03:35:04;;;;;;;24.77;13.98;;;;;;;7.66;50.16;102456.09;5047639;28;19916;-75
2022/01/19 03:37:49;;;;;;;29.60;15.43;;;;;;;7.60;50.69;102461.69;5058998;28;20060;-75
2022/01/19 03:40:35;;;;;;;19.52;10.57;;;;;;;7.55;50.64;102470.56;5060007;28;20063;-76
2022/01/19 03:43:20;;;;;;;30.80;15.93;;;;;;;7.46;50.64;102465.84;5072276;28;20044;-76
2022/01/19 03:46:21;;;;;;;25.90;14.82;;;;;;;7.55;50.64;102465.16;5061252;28;20040;-75
2022/01/19 03:49:11;;;;;;;24.02;13.70;;;;;;;7.49;50.86;102460.72;5058592;28;20504;-75
2022/01/19 03:51:59;;;;;;;25.67;14.73;;;;;;;7.46;50.89;102460.44;5062831;28;20417;-75
2022/01/19 03:54:45;;;;;;;29.85;13.32;;;;;;;7.44;50.93;102457.97;5062735;28;20520;-75
2022/01/19 03:57:30;;;;;;;30.25;16.23;;;;;;;7.57;50.79;102451.34;5058803;28;20045;-75
2022/01/19 04:00:15;;;;;;;20.52;12.38;;;;;;;7.59;50.87;102454.63;5072582;28;20282;-75
2022/01/19 04:03:05;;;;;;;25.48;14.27;;;;;;;7.52;50.65;102449.38;5083220;28;20039;-75
2022/01/19 04:06:03;;;;;;;25.55;14.73;;;;;;;7.58;50.38;102452.97;5058681;28;20048;-75
2022/01/19 04:08:48;;;;;;;23.95;14.98;;;;;;;7.49;50.13;102449.91;5056402;28;20044;-75
2022/01/19 04:11:33;;;;;;;23.27;12.25;;;;;;;7.28;52.12;102443.41;5060387;28;20087;-75
2022/01/19 04:14:21;;;;;;;26.17;13.20;;;;;;;7.09;53.84;102447.50;5057468;28;20409;-75
2022/01/19 04:17:12;;;;;;;31.27;16.00;;;;;;;7.28;51.04;102458.81;5055972;28;20052;-75
2022/01/19 04:19:57;;;;;;;30.35;15.05;;;;;;;7.37;50.65;102460.03;5056290;28;20040;-76
2022/01/19 04:22:45;;;;;;;28.23;15.07;;;;;;;7.17;50.56;102451.63;5058146;28;20049;-75
2022/01/19 04:25:29;;;;;;;22.23;11.88;;;;;;;7.06;51.92;102449.88;5054896;28;20432;-75
2022/01/19 04:28:15;;;;;;;26.70;12.75;;;;;;;7.10;52.75;102446.44;5059812;28;20059;-75
2022/01/19 04:31:04;;;;;;;29.00;15.07;;;;;;;6.86;53.71;102445.78;5057779;28;20028;-75
2022/01/19 04:33:50;;;;;;;20.50;12.73;;;;;;;6.87;54.42;102450.13;5055169;28;20036;-75
2022/01/19 05:07:55;;;;;;;26.65;15.82;;;;;;;6.83;52.80;102418.44;5058028;28;20036;-75
2022/01/19 05:13:37;;;;;;;27.73;14.88;;;;;;;6.77;51.50;102414.84;5059140;28;20032;-75
2022/01/19 05:16:23;;;;;;;28.70;15.50;;;;;;;6.76;51.10;102412.38;5055277;28;20044;-75
2022/01/19 05:19:08;;;;;;;27.13;14.48;;;;;;;6.71;50.84;102415.81;5060670;28;20041;-75
2022/01/19 05:21:55;;;;;;;26.42;16.63;;;;;;;6.66;50.72;102413.03;5058951;28;20056;-75
2022/01/19 05:25:00;;;;;;;27.58;14.65;;;;;;;6.71;49.96;102410.41;5065716;28;20040;-76
2022/01/19 05:28:01;;;;;;;24.60;14.75;;;;;;;6.64;51.13;102406.25;5070044;28;20036;-75
2022/01/19 05:30:46;;;;;;;21.17;11.38;;;;;;;6.62;50.51;102406.50;5073689;28;20044;-75
2022/01/19 05:33:32;;;;;;;22.35;11.40;;;;;;;6.59;50.76;102411.59;5057870;28;20048;-75
2022/01/19 05:36:17;;;;;;;32.67;16.00;;;;;;;6.58;50.12;102405.38;5058192;28;20119;-75
2022/01/19 05:39:16;;;;;;;31.30;14.52;;;;;;;6.52;49.90;102406.34;5060303;28;20044;-75
2022/01/19 05:42:37;;;;;;;36.33;15.77;;;;;;;6.47;50.58;102408.97;4980443;28;20672;-75
2022/01/19 05:45:24;;;;;;;30.38;15.50;;;;;;;6.48;50.13;102410.59;5061664;28;20041;-75
2022/01/19 05:48:09;;;;;;;27.63;15.50;;;;;;;6.43;50.57;102405.94;5069621;28;20043;-76
2022/01/19 05:50:55;;;;;;;26.30;14.75;;;;;;;6.41;50.63;102408.06;5058772;28;20417;-75
2022/01/19 05:53:45;;;;;;;33.47;15.35;;;;;;;6.43;50.86;102405.94;5060784;28;20044;-76
2022/01/19 05:56:31;;;;;;;30.90;16.40;;;;;;;6.38;51.02;102407.75;5061641;28;20045;-76
2022/01/19 05:59:22;;;;;;;31.25;15.05;;;;;;;6.38;51.26;102413.16;5059436;28;20049;-76
2022/01/19 06:02:07;;;;;;;30.73;14.70;;;;;;;6.37;51.00;102414.22;5061222;28;20416;-76
2022/01/19 06:04:52;;;;;;;23.05;11.10;;;;;;;6.35;50.61;102411.75;5084248;28;20404;-75
2022/01/19 06:08:11;;;;;;;30.85;14.70;;;;;;;6.46;50.44;102401.91;5063733;28;20040;-75
2022/01/19 06:11:00;;;;;;;28.10;15.02;;;;;;;6.38;50.68;102405.03;5068322;28;20496;-75
2022/01/19 06:13:45;;;;;;;19.98;11.65;;;;;;;6.28;50.86;102404.88;5073189;28;20117;-75
2022/01/19 06:16:30;;;;;;;24.15;12.50;;;;;;;6.30;50.64;102413.53;5075281;28;20048;-75
2022/01/19 06:19:19;;;;;;;21.15;12.18;;;;;;;6.20;51.30;102402.56;5078337;28;20424;-75
2022/01/19 06:22:05;;;;;;;25.27;15.40;;;;;;;6.29;52.46;102415.44;5059749;28;20047;-76
2022/01/19 06:24:50;;;;;;;27.67;15.27;;;;;;;5.50;52.16;102410.97;5058563;28;20040;-77
2022/01/19 06:27:35;;;;;;;33.65;16.45;;;;;;;4.72;53.83;102416.84;5073270;28;20047;-76
2022/01/19 06:30:20;;;;;;;24.73;13.80;;;;;;;4.15;55.46;102421.09;5075346;28;20047;-76
2022/01/19 06:33:06;;;;;;;23.27;13.85;;;;;;;3.90;56.45;102423.13;5061486;28;20037;-76
2022/01/19 06:35:53;;;;;;;34.08;16.23;;;;;;;3.41;57.21;102420.44;5059388;28;20044;-77
2022/01/19 06:39:04;;;;;;;38.00;18.27;;;;;;;2.65;60.79;102413.81;5072533;28;20484;-76
2022/01/19 06:41:58;;;;;;;35.83;19.75;;;;;;;2.57;62.87;102423.00;5060976;28;20503;-75
2022/01/19 06:44:44;;;;;;;35.90;19.17;;;;;;;2.53;62.66;102422.63;5070115;28;20539;-76
2022/01/19 06:47:29;;;;;;;28.38;16.27;;;;;;;2.54;62.65;102418.88;5061545;28;20036;-76
2022/01/19 06:50:18;;;;;;;33.22;16.25;;;;;;;2.30;63.28;102417.00;5060204;28;20146;-76
2022/01/19 06:53:03;;;;;;;34.92;18.40;;;;;;;2.16;63.74;102412.78;5058028;28;20040;-76
2022/01/19 06:55:49;;;;;;;;;;;;;;;2.09;64.80;102418.19;5055533;28;20043;-77
2022/01/19 06:58:34;;;;;;;30.55;17.63;;;;;;;2.03;65.65;102420.94;5059956;28;19912;-76
2022/01/19 07:01:38;;;;;;;34.92;19.08;;;;;;;2.04;65.80;102417.19;5057383;28;20052;-76
2022/01/19 07:04:32;;;;;;;29.42;18.83;;;;;;;2.02;65.87;102417.44;5053793;28;20047;-75
2022/01/19 07:07:19;;;;;;;30.48;15.40;;;;;;;2.10;66.35;102421.72;5056790;28;20056;-76
2022/01/19 07:10:16;;;;;;;36.05;19.95;;;;;;;2.20;65.83;102419.38;5053044;28;20063;-76
2022/01/19 07:13:03;;;;;;;29.27;16.17;;;;;;;2.26;64.58;102421.19;5060049;28;20040;-76
2022/01/19 07:15:48;;;;;;;38.25;20.23;;;;;;;2.36;66.05;102418.84;5069374;28;20048;-76
2022/01/19 07:18:33;;;;;;;33.83;19.52;;;;;;;2.68;64.56;102416.09;5075417;28;20508;-75
2022/01/19 07:21:19;;;;;;;36.08;18.38;;;;;;;2.61;64.79;102412.63;5067496;28;20044;-75
2022/01/19 07:24:12;;;;;;;41.63;19.75;;;;;;;2.34;65.26;102412.84;5060018;28;20432;-76
2022/01/19 07:26:58;;;;;;;37.83;21.20;;;;;;;2.35;66.27;102411.81;5064311;28;20043;-74
2022/01/19 07:29:46;;;;;;;46.97;21.42;;;;;;;2.69;65.30;102407.00;5067590;28;20501;-76
2022/01/19 07:32:34;;;;;;;33.40;18.95;;;;;;;2.76;64.77;102400.50;5053899;28;20045;-75
2022/01/19 07:35:19;;;;;;;36.58;18.27;;;;;;;2.57;65.16;102399.66;5061105;28;20040;-75
2022/01/19 07:38:06;;;;;;;33.13;18.92;;;;;;;2.73;64.68;102403.63;5060505;28;20409;-76
2022/01/19 07:40:52;;;;;;;;;;;;;;;2.66;65.72;102402.03;5060709;28;20036;-75
2022/01/19 07:43:37;;;;;;;33.90;18.85;;;;;;;2.89;65.29;102405.75;5060913;28;20296;-75
2022/01/19 07:46:42;;;;;;;39.38;19.50;;;;;;;2.75;66.19;102408.78;5071502;28;20047;-77
2022/01/19 07:49:46;;;;;;;39.17;19.92;;;;;;;2.70;65.74;102401.38;5057067;28;20067;-82
2022/01/19 07:52:58;;;;;;;44.25;21.95;;;;;;;2.92;65.22;102389.19;5064083;28;20051;-83
2022/01/19 07:55:53;;;;;;;42.63;19.63;;;;;;;2.87;66.26;102390.88;5077364;28;20047;-83
2022/01/19 07:58:54;;;;;;;39.50;21.05;;;;;;;3.13;65.47;102387.91;5092214;28;20520;-82
2022/01/19 08:01:46;;;;;;;41.13;20.73;;;;;;;3.17;65.86;102396.34;5079194;28;20040;-83
2022/01/19 08:04:50;;;;;;;48.45;22.58;;;;;;;2.99;66.89;102394.50;5070381;28;20040;-85
2022/01/19 08:07:40;;;;;;;43.70;22.95;;;;;;;3.28;65.85;102396.41;5060486;28;20040;-87
2022/01/19 08:10:25;;;;;;;27.52;16.55;;;;;;;3.39;65.45;102392.97;5055179;28;20128;-83
2022/01/19 08:13:10;;;;;;;38.95;16.55;;;;;;;3.51;65.38;102393.00;5053248;28;20045;-86
2022/01/19 08:15:55;;;;;;;34.85;16.88;;;;;;;3.53;65.74;102384.72;5059390;28;20040;-84
2022/01/19 08:18:40;;;;;;;38.92;17.85;;;;;;;3.23;67.28;102384.69;5062076;28;20064;-86
2022/01/19 08:21:25;;;;;;;38.63;18.33;;;;;;;3.03;69.42;102381.41;5064672;28;20045;-84
2022/01/19 08:24:15;;;;;;;47.80;22.30;;;;;;;3.09;69.17;102378.66;5060289;28;20607;-84
2022/01/19 08:27:01;;;;;;;53.20;22.58;;;;;;;3.36;68.87;102385.34;5058717;28;20059;-85
2022/01/19 08:29:54;;;;;;;47.03;23.90;;;;;;;3.82;67.49;102389.28;5075730;28;20041;-86
2022/01/19 08:32:44;;;;;;;60.45;26.05;;;;;;;3.90;66.99;102385.47;5063814;28;20412;-84
2022/01/19 08:35:28;;;;;;;49.78;22.00;;;;;;;3.90;67.37;102386.28;5083334;28;20036;-85
2022/01/19 08:38:33;;;;;;;47.42;23.58;;;;;;;4.21;66.80;102387.88;5074531;28;20226;-83
2022/01/19 08:41:31;;;;;;;49.72;23.92;;;;;;;4.11;67.38;102387.63;5062801;28;20048;-83
2022/01/19 08:44:18;;;;;;;53.05;24.23;;;;;;;3.77;69.25;102387.28;5064831;28;20051;-84
2022/01/19 08:47:11;;;;;;;62.03;27.40;;;;;;;3.37;70.64;102378.94;5058872;28;20043;-84
2022/01/19 08:50:28;;;;;;;52.50;24.52;;;;;;;3.19;71.77;102375.44;5065299;28;20059;-84
2022/01/19 08:53:27;;;;;;;63.97;26.55;;;;;;;3.01;71.86;102373.56;5057451;28;20041;-85
2022/01/19 08:56:26;;;;;;;61.72;28.00;;;;;;;3.23;71.11;102377.47;5058364;28;20032;-84
2022/01/19 08:59:11;;;;;;;44.67;24.80;;;;;;;3.19;71.65;102378.97;5075697;28;20044;-84
2022/01/19 09:01:57;;;;;;;49.55;24.65;;;;;;;3.51;70.60;102373.38;5072866;28;20413;-84
2022/01/19 09:04:42;;;;;;;67.60;32.55;;;;;;;3.73;70.39;102379.91;5076319;28;20040;-85
2022/01/19 09:07:27;;;;;;;45.58;23.17;;;;;;;3.94;70.12;102376.69;5075109;28;20246;-83
2022/01/19 09:10:12;;;;;;;60.77;23.00;;;;;;;4.08;70.09;102382.69;5072902;28;20053;-84
2022/01/19 09:12:57;;;;;;;55.80;31.00;;;;;;;3.94;70.39;102379.38;5077170;28;20048;-85
2022/01/19 09:15:42;;;;;;;48.45;26.70;;;;;;;3.70;70.75;102375.00;5075673;28;20047;-84
2022/01/19 09:18:27;;;;;;;53.38;27.85;;;;;;;3.79;69.69;102365.53;5073732;28;20044;-83
2022/01/19 09:21:12;;;;;;;48.22;26.63;;;;;;;3.68;70.02;102360.94;5077782;28;20056;-86
2022/01/19 09:23:57;;;;;;;54.90;27.40;;;;;;;3.94;69.87;102362.41;5077246;28;20509;-85
2022/01/19 09:26:42;;;;;;;63.42;29.15;;;;;;;3.94;69.73;102362.41;5076946;28;20155;-86
2022/01/19 09:29:27;;;;;;;58.85;30.58;;;;;;;3.97;70.62;102357.38;5077842;28;20041;-85
2022/01/19 09:32:13;;;;;;;63.42;28.45;;;;;;;4.09;70.76;102363.63;5082228;28;20268;-84
2022/01/19 09:35:06;;;;;;;69.03;35.72;;;;;;;4.51;68.72;102350.91;5081518;28;20045;-87
2022/01/19 09:37:52;;;;;;;74.00;37.75;;;;;;;4.53;69.49;102358.72;5073476;28;20127;-81
2022/01/19 09:40:37;;;;;;;77.00;36.35;;;;;;;4.24;70.12;102363.16;5084174;28;20036;-83
2022/01/19 09:43:22;;;;;;;57.77;28.97;;;;;;;4.43;69.97;102347.72;5084802;28;20055;-83
2022/01/19 09:46:06;;;;;;;;;;;;;;;4.57;69.52;102349.94;5102033;28;20051;-84
2022/01/19 09:48:51;;;;;;;64.43;33.17;;;;;;;4.36;69.74;102358.63;5087544;28;19937;-85
2022/01/19 09:51:42;;;;;;;59.40;27.15;;;;;;;4.53;69.43;102350.66;5075008;28;20040;-85
2022/01/19 09:54:30;;;;;;;60.85;30.58;;;;;;;4.72;69.32;102352.19;5083458;28;20052;-84
2022/01/19 09:57:15;;;;;;;67.15;31.42;;;;;;;4.57;70.64;102354.53;5084004;28;20036;-84
2022/01/19 10:00:00;;;;;;;59.13;27.17;;;;;;;4.28;71.98;102351.69;5068201;28;20055;-84
2022/01/19 10:03:30;;;;;;;55.63;26.55;;;;;;;4.46;71.72;102341.88;5090103;28;20040;-83
2022/01/19 10:06:17;;;;;;;54.47;29.20;;;;;;;4.51;72.81;102337.44;5091787;28;20048;-84
2022/01/19 10:09:02;;;;;;;51.25;29.00;;;;;;;4.69;72.85;102337.28;5097540;28;20044;-83
2022/01/19 10:18:07;;;;;;;62.67;28.10;;;;;;;4.86;72.68;102320.41;5094320;28;20036;-84
2022/01/19 10:21:16;;;;;;;52.30;28.05;;;;;;;5.12;71.68;102309.91;5090003;28;20046;-85
2022/01/19 10:24:08;;;;;;;53.90;27.45;;;;;;;5.10;71.96;102303.91;5063216;28;20521;-84
2022/01/19 10:26:53;;;;;;;42.63;26.55;;;;;;;5.28;71.00;102286.75;5066757;28;20041;-83
2022/01/19 10:29:37;;;;;;;36.57;22.80;;;;;;;5.57;70.72;102287.53;5082220;28;20044;-87
2022/01/19 10:32:24;;;;;;;37.28;22.52;;;;;;;5.24;71.72;102293.66;5099806;28;20043;-86
2022/01/19 10:35:21;;;;;;;44.92;24.00;;;;;;;5.67;70.25;102287.72;5096830;28;20047;-86
2022/01/19 10:38:27;;;;;;;45.83;24.10;;;;;;;5.49;70.68;102283.34;5081679;28;20500;-86
2022/01/19 10:41:12;;;;;;;40.72;22.95;;;;;;;5.84;69.80;102280.44;5101661;28;20047;-85
2022/01/19 10:43:57;;;;;;;36.53;22.38;;;;;;;5.91;70.21;102273.03;5097981;28;20509;-84
2022/01/19 10:46:45;;;;;;;32.03;20.42;;;;;;;5.88;69.97;102273.53;5099179;28;20040;-84
2022/01/19 10:49:56;;;;;;;37.47;22.15;;;;;;;5.85;69.49;102265.88;5094494;28;20041;-85
2022/01/19 10:52:45;;;;;;;35.55;20.05;;;;;;;5.82;69.48;102277.19;5083053;28;20048;-90
2022/01/19 10:55:42;;;;;;;39.00;23.33;;;;;;;5.93;70.32;102270.91;5080493;28;20041;-85
2022/01/19 10:58:26;;;;;;;35.08;22.63;;;;;;;5.74;69.86;102271.38;5095588;28;20044;-85
2022/01/19 11:01:11;;;;;;;31.60;18.95;;;;;;;5.66;70.11;102259.09;5090471;28;20047;-86
2022/01/19 11:04:29;;;;;;;31.47;18.20;;;;;;;5.30;71.52;102256.81;5083710;28;20040;-84
2022/01/19 11:07:19;;;;;;;36.40;21.60;;;;;;;5.39;71.47;102248.09;5085665;28;20279;-83
2022/01/19 11:10:12;;;;;;;37.58;22.45;;;;;;;5.51;70.81;102248.84;5069680;28;20047;-84
2022/01/19 11:12:56;;;;;;;40.70;24.05;;;;;;;5.57;71.07;102238.97;5071172;28;20044;-84
2022/01/19 11:15:44;;;;;;;38.78;20.33;;;;;;;6.27;68.70;102228.47;5079260;28;20047;-83
2022/01/19 11:18:30;;;;;;;41.22;22.35;;;;;;;6.11;68.91;102215.81;5085003;28;20520;-83
2022/01/19 11:21:20;;;;;;;37.55;22.40;;;;;;;6.61;67.59;102215.66;5077208;28;20425;-84
2022/01/19 11:24:21;;;;;;;36.92;21.08;;;;;;;5.94;68.79;102218.53;5079784;28;20045;-84
2022/01/19 11:27:06;;;;;;;51.05;24.55;;;;;;;6.87;66.55;102200.56;5087738;28;20044;-85
2022/01/19 11:30:13;;;;;;;42.05;25.60;;;;;;;7.25;65.06;102200.44;5064914;28;20084;-85
2022/01/19 11:33:28;;;;;;;34.20;20.52;;;;;;;6.43;68.14;102194.38;5080028;28;20448;-83
2022/01/19 11:36:34;;;;;;;46.22;23.42;;;;;;;7.15;65.53;102180.56;5098258;28;20404;-84
2022/01/19 11:39:21;;;;;;;46.28;24.30;;;;;;;6.84;67.52;102177.56;5074856;28;20040;-84
2022/01/19 11:42:07;;;;;;;51.28;21.90;;;;;;;6.56;67.22;102169.66;5067327;28;20036;-84
2022/01/19 11:44:52;;;;;;;47.10;24.83;;;;;;;6.47;67.50;102170.38;5079870;28;20048;-85
2022/01/19 11:47:42;;;;;;;32.22;19.05;;;;;;;6.11;68.35;102164.50;5083440;28;20051;-84
2022/01/19 11:50:29;;;;;;;52.78;26.58;;;;;;;6.19;68.97;102147.88;5077479;28;20044;-84
2022/01/19 11:53:15;;;;;;;46.58;25.77;;;;;;;6.07;69.25;102149.06;5084134;28;20052;-83
2022/01/19 11:56:09;;;;;;;45.13;25.48;;;;;;;6.57;69.00;102138.88;5081001;28;20040;-83
2022/01/19 11:59:08;;;;;;;43.83;25.10;;;;;;;6.54;68.88;102141.28;5075410;28;20417;-83
2022/01/19 12:02:13;;;;;;;48.80;26.42;;;;;;;6.09;69.92;102139.66;5082216;28;20050;-83
2022/01/19 12:04:58;;;;;;;42.47;23.67;;;;;;;6.04;70.70;102130.66;5075843;28;20044;-83
2022/01/19 12:07:55;;;;;;;41.97;24.73;;;;;;;5.99;71.48;102132.22;5077950;28;20414;-83
2022/01/19 12:10:46;;;;;;;44.33;26.17;;;;;;;5.75;71.82;102128.06;5074777;28;20289;-82
2022/01/19 12:14:07;;;;;;;46.75;23.63;;;;;;;5.49;73.02;102116.09;5076282;28;20040;-82
2022/01/19 12:19:46;;;;;;;54.10;29.63;;;;;;;5.83;72.82;102100.66;5076613;28;20067;-83
2022/01/19 12:22:34;;;;;;;48.03;24.35;;;;;;;5.71;73.81;102088.34;5083423;28;20052;-84
2022/01/19 12:25:18;;;;;;;53.95;29.30;;;;;;;5.75;73.67;102084.88;5086201;28;20512;-84
2022/01/19 12:28:03;;;;;;;43.10;24.65;;;;;;;5.82;72.95;102082.84;5074754;28;20032;-84
2022/01/19 12:30:48;;;;;;;42.00;23.48;;;;;;;5.92;72.43;102077.59;5080159;28;20052;-83
2022/01/19 12:33:33;;;;;;;41.85;23.27;;;;;;;5.95;72.33;102071.69;5070940;28;20544;-84
2022/01/19 12:36:43;;;;;;;51.45;23.50;;;;;;;5.50;74.34;102062.94;5082930;28;20047;-84
2022/01/19 12:39:28;;;;;;;49.00;25.25;;;;;;;6.07;72.00;102058.06;5074843;28;20424;-84
2022/01/19 12:42:21;;;;;;;44.67;26.58;;;;;;;5.92;73.07;102050.59;5077268;28;20036;-84
2022/01/19 12:45:15;;;;;;;50.75;25.70;;;;;;;5.58;74.12;102049.06;5074618;28;20028;-86
2022/01/19 12:48:03;;;;;;;49.10;25.73;;;;;;;5.34;75.38;102037.63;5076098;28;20044;-85
2022/01/19 12:50:48;;;;;;;62.63;31.05;;;;;;;5.22;76.76;102023.44;5075434;28;20041;-85
2022/01/19 12:53:33;;;;;;;40.97;22.23;;;;;;;5.43;75.45;102024.56;5076839;28;20045;-86
2022/01/19 12:56:18;;;;;;;51.47;29.52;;;;;;;5.73;74.82;102014.16;5077478;28;20044;-85
2022/01/19 12:59:07;;;;;;;41.47;22.92;;;;;;;5.70;73.98;102009.25;5079274;28;20226;-84
2022/01/19 13:01:52;;;;;;;57.55;30.85;;;;;;;5.35;75.39;101996.13;5098009;28;20040;-84
2022/01/19 13:04:38;;;;;;;43.72;24.35;;;;;;;5.55;75.08;101990.19;5100253;28;20044;-83
2022/01/19 13:07:27;;;;;;;52.38;32.03;;;;;;;5.66;74.71;101983.84;5099308;28;20040;-83
2022/01/19 13:13:12;;;;;;;58.13;30.10;;;;;;;5.47;75.15;101988.75;5100123;28;20448;-83
2022/01/19 13:16:02;;;;;;;54.90;29.45;;;;;;;5.48;75.35;101967.97;5097975;28;20051;-84
2022/01/19 13:18:46;;;;;;;61.95;30.67;;;;;;;5.22;76.27;101966.81;5085530;28;20051;-85
2022/01/19 13:21:32;;;;;;;43.45;25.05;;;;;;;5.68;75.84;101956.63;5100176;28;20062;-85
2022/01/19 13:24:25;;;;;;;48.45;25.38;;;;;;;5.88;74.01;101964.97;5097775;28;20036;-84
2022/01/19 13:27:10;;;;;;;52.08;30.30;;;;;;;6.38;72.86;101951.16;5101955;28;20036;-83
2022/01/19 13:29:55;;;;;;;44.95;23.23;;;;;;;6.29;72.35;101950.00;5098908;28;20040;-85
2022/01/19 13:32:40;;;;;;;59.20;23.10;;;;;;;6.33;71.35;101937.63;5098192;28;20039;-84
2022/01/19 13:35:27;;;;;;;49.10;28.27;;;;;;;6.27;71.70;101944.03;5100992;28;20281;-84
2022/01/19 13:38:13;;;;;;;54.05;29.20;;;;;;;5.90;73.46;101941.22;5098754;28;20040;-84
2022/01/19 13:41:07;;;;;;;58.60;30.98;;;;;;;6.54;72.00;101947.53;5100680;28;20428;-84
2022/01/19 13:43:58;;;;;;;50.20;29.60;;;;;;;6.49;71.85;101941.28;5102432;28;20051;-85
2022/01/19 13:46:43;;;;;;;54.25;29.55;;;;;;;6.66;71.06;101934.63;5099189;28;20086;-84
2022/01/19 13:49:28;;;;;;;42.45;23.10;;;;;;;6.29;72.24;101937.31;5097026;28;20062;-84
2022/01/19 13:52:13;;;;;;;48.25;26.00;;;;;;;5.97;73.43;101937.28;5100718;28;20040;-84
2022/01/19 13:54:58;;;;;;;60.88;25.08;;;;;;;5.77;73.89;101939.72;5099203;28;20417;-85
2022/01/19 13:57:43;;;;;;;50.15;24.55;;;;;;;5.62;75.52;101942.25;5080145;28;20055;-84
2022/01/19 14:00:28;;;;;;;57.83;26.23;;;;;;;5.88;75.40;101946.91;5076254;28;20497;-84
2022/01/19 14:03:13;;;;;;;44.10;25.05;;;;;;;6.11;74.22;101936.84;5078940;28;20052;-80
2022/01/19 14:05:58;;;;;;;50.10;27.33;;;;;;;5.93;74.46;101922.66;5069735;28;20048;-79
2022/01/19 14:08:43;;;;;;;55.50;27.90;;;;;;;5.77;76.15;101930.81;5076143;28;20531;-83
2022/01/19 14:11:27;;;;;;;50.03;26.43;;;;;;;5.70;75.88;101933.69;5067164;28;20041;-85
2022/01/19 14:14:32;;;;;;;47.22;26.42;;;;;;;6.22;74.34;101925.91;5073491;28;20520;-87
2022/01/19 14:17:47;;;;;;;89.45;33.95;;;;;;;6.40;73.42;101924.69;5072972;28;20524;-86
2022/01/19 14:20:32;;;;;;;;;;;;;;;6.17;73.42;101911.53;5061605;28;20049;-81
2022/01/19 14:23:18;;;;;;;;;;;;;;;6.33;73.71;101911.44;5079681;28;20301;-79
2022/01/19 14:26:06;;;;;;;;;;;;;;;6.06;75.84;101902.53;5080123;28;19912;-80
2022/01/19 14:29:09;;;;;;;;;;;;;;;5.86;75.91;101905.00;5079481;28;19913;-81
2022/01/19 14:31:56;;;;;;;;;;;;;;;5.39;78.96;101900.16;5081017;28;19912;-80
2022/01/19 14:34:42;;;;;;;;;;;;;;;5.59;78.48;101896.88;5081694;28;20288;-82
2022/01/19 14:37:27;;;;;;;;;;;;;;;5.80;78.17;101889.81;5078036;28;19916;-81
2022/01/19 14:40:12;;;;;;;;;;;;;;;5.91;76.85;101881.59;5081239;28;19916;-81